createdAt,value
2023-03-12T00:01:50.188Z,77.94
2023-03-12T00:04:36.367Z,77.00
2023-03-12T00:07:21.956Z,76.88
2023-03-12T00:10:07.936Z,77.27
2023-03-12T00:12:53.582Z,76.86
2023-03-12T00:15:39.594Z,76.22
2023-03-12T00:18:25.295Z,76.75
2023-03-12T00:21:11.079Z,75.60
2023-03-12T00:23:56.976Z,75.38
2023-03-12T00:26:42.778Z,74.85
2023-03-12T00:29:28.566Z,74.27
2023-03-12T00:32:14.520Z,74.39
2023-03-12T00:34:59.790Z,74.21
2023-03-12T00:37:45.154Z,73.33
2023-03-12T00:40:30.697Z,73.58
2023-03-12T00:43:15.945Z,73.00
2023-03-12T00:46:01.423Z,73.38
2023-03-12T00:48:46.868Z,72.86
2023-03-12T00:51:32.239Z,71.68
2023-03-12T00:54:17.858Z,70.67
2023-03-12T00:57:03.519Z,72.10
2023-03-12T00:59:48.845Z,71.90
2023-03-12T01:02:34.104Z,70.57
2023-03-12T01:05:19.648Z,70.32
2023-03-12T01:08:07.267Z,71.23
2023-03-12T01:10:52.792Z,69.93
2023-03-12T01:13:38.481Z,70.33
2023-03-12T01:16:28.086Z,69.98
2023-03-12T01:19:13.688Z,69.04
2023-03-12T01:21:59.027Z,69.15
2023-03-12T01:24:44.505Z,69.01
2023-03-12T01:27:29.834Z,70.25
2023-03-12T01:30:15.412Z,69.19
2023-03-12T01:33:00.991Z,69.76
2023-03-12T01:35:46.536Z,68.57
2023-03-12T01:38:32.535Z,69.14
2023-03-12T01:41:18.766Z,68.47
2023-03-12T01:44:05.323Z,67.71
2023-03-12T01:46:51.084Z,68.30
2023-03-12T01:49:41.569Z,68.45
2023-03-12T01:52:35.088Z,68.76
2023-03-12T01:55:20.775Z,69.07
2023-03-12T01:58:07.951Z,69.45
2023-03-12T02:00:53.856Z,69.63
2023-03-12T02:03:39.905Z,68.99
2023-03-12T02:06:53.676Z,68.89
2023-03-12T02:09:43.014Z,68.96
2023-03-12T02:12:28.550Z,68.85
2023-03-12T02:15:14.118Z,68.47
2023-03-12T02:17:59.892Z,68.15
2023-03-12T02:21:20.270Z,68.59
2023-03-12T02:24:32.077Z,68.25
2023-03-12T02:27:19.278Z,68.86
2023-03-12T02:30:05.580Z,68.37
2023-03-12T02:32:52.228Z,69.09
2023-03-12T02:35:38.474Z,68.43
2023-03-12T02:38:45.295Z,69.25
2023-03-12T02:41:38.330Z,68.43
2023-03-12T02:44:33.428Z,68.56
2023-03-12T02:47:19.723Z,68.87
2023-03-12T02:50:05.762Z,68.19
2023-03-12T02:52:51.622Z,69.05
2023-03-12T02:55:37.317Z,68.39
2023-03-12T02:58:22.672Z,68.87
2023-03-12T03:01:08.195Z,68.03
2023-03-12T03:03:54.571Z,68.99
2023-03-12T03:06:43.799Z,68.43
2023-03-12T03:09:30.015Z,68.61
2023-03-12T03:12:16.132Z,68.99
2023-03-12T03:15:01.749Z,68.74
2023-03-12T03:17:47.472Z,68.21
2023-03-12T03:20:32.904Z,68.19
2023-03-12T03:23:18.262Z,68.13
2023-03-12T03:26:03.867Z,68.97
2023-03-12T03:28:50.550Z,68.45
2023-03-12T03:31:36.279Z,68.59
2023-03-12T03:34:21.969Z,67.87
2023-03-12T03:37:07.644Z,68.79
2023-03-12T03:39:54.495Z,68.94
2023-03-12T03:42:40.467Z,69.13
2023-03-12T03:45:27.537Z,69.80
2023-03-12T03:48:15.041Z,69.64
2023-03-12T03:51:06.139Z,68.85
2023-03-12T03:53:54.069Z,68.90
2023-03-12T03:56:40.887Z,69.61
2023-03-12T03:59:27.128Z,68.50
2023-03-12T04:02:12.540Z,69.08
2023-03-12T04:04:59.957Z,68.38
2023-03-12T04:07:46.801Z,68.60
2023-03-12T04:10:33.895Z,68.20
2023-03-12T04:13:19.939Z,68.65
2023-03-12T04:16:06.410Z,68.39
2023-03-12T04:18:51.988Z,68.72
2023-03-12T04:21:39.687Z,68.18
2023-03-12T04:24:26.386Z,69.12
2023-03-12T04:27:12.050Z,68.28
2023-03-12T04:29:59.126Z,68.89
2023-03-12T04:32:44.667Z,68.39
2023-03-12T04:35:30.758Z,69.42
2023-03-12T04:38:16.724Z,69.25
2023-03-12T04:41:06.027Z,69.65
2023-03-12T04:43:52.014Z,69.58
2023-03-12T04:46:39.175Z,69.28
2023-03-12T04:49:25.023Z,69.57
2023-03-12T04:52:12.601Z,69.54
2023-03-12T04:55:00.441Z,70.37
2023-03-12T04:57:46.047Z,70.17
2023-03-12T05:00:31.944Z,70.29
2023-03-12T05:03:18.254Z,71.14
2023-03-12T05:06:05.298Z,71.01
2023-03-12T05:08:51.418Z,70.86
2023-03-12T05:11:39.580Z,70.77
2023-03-12T05:14:28.146Z,70.80
2023-03-12T05:17:13.640Z,71.80
2023-03-12T05:19:59.708Z,71.10
2023-03-12T05:22:45.744Z,70.87
2023-03-12T05:25:31.969Z,71.23
2023-03-12T05:28:18.036Z,71.29
2023-03-12T05:31:10.117Z,71.73
2023-03-12T05:33:56.116Z,70.68
2023-03-12T05:36:41.948Z,71.15
2023-03-12T05:39:28.350Z,70.78
2023-03-12T05:42:17.755Z,70.74
2023-03-12T05:45:05.520Z,70.86
2023-03-12T05:47:51.793Z,71.50
2023-03-12T05:50:37.859Z,70.87
2023-03-12T05:53:24.147Z,71.53
2023-03-12T05:56:13.868Z,71.70
2023-03-12T05:58:59.485Z,70.20
2023-03-12T06:01:45.119Z,68.78
2023-03-12T06:04:31.067Z,70.64
2023-03-12T06:07:16.437Z,70.62
2023-03-12T06:10:01.769Z,70.32
2023-03-12T06:12:47.077Z,70.62
2023-03-12T06:15:32.783Z,70.83
2023-03-12T06:18:18.863Z,70.47
2023-03-12T06:21:09.019Z,70.68
2023-03-12T06:23:55.230Z,70.57
2023-03-12T06:26:48.355Z,69.93
2023-03-12T06:29:33.861Z,70.64
2023-03-12T06:32:19.377Z,68.90
2023-03-12T06:35:05.846Z,70.23
2023-03-12T06:37:51.932Z,69.94
2023-03-12T06:40:37.973Z,69.35
2023-03-12T06:43:24.328Z,68.82
2023-03-12T06:46:13.993Z,68.93
2023-03-12T06:48:59.477Z,68.72
2023-03-12T06:51:45.087Z,68.37
2023-03-12T06:54:30.992Z,68.12
2023-03-12T06:57:16.743Z,66.48
2023-03-12T07:00:02.249Z,66.39
2023-03-12T07:02:47.712Z,66.82
2023-03-12T07:05:33.644Z,67.07
2023-03-12T07:08:19.116Z,66.71
2023-03-12T07:11:04.840Z,66.24
2023-03-12T07:13:51.618Z,66.02
2023-03-12T07:16:37.850Z,65.78
2023-03-12T07:19:23.225Z,64.95
2023-03-12T07:22:08.664Z,64.86
2023-03-12T07:24:54.482Z,64.64
2023-03-12T07:27:40.838Z,64.61
2023-03-12T07:30:26.354Z,63.53
2023-03-12T07:33:12.928Z,63.72
2023-03-12T07:35:59.173Z,63.12
2023-03-12T07:38:44.967Z,62.20
2023-03-12T07:41:31.325Z,63.06
2023-03-12T07:44:16.774Z,62.91
2023-03-12T07:47:16.599Z,61.78
2023-03-12T07:50:08.316Z,61.81
2023-03-12T07:52:53.914Z,62.45
2023-03-12T07:55:39.322Z,62.48
2023-03-12T07:58:25.193Z,62.16
2023-03-12T08:01:10.928Z,61.00
2023-03-12T08:03:56.882Z,61.22
2023-03-12T08:06:45.109Z,62.22
2023-03-12T08:09:30.930Z,61.60
2023-03-12T08:12:17.220Z,62.62
2023-03-12T08:15:06.680Z,63.37
2023-03-12T08:17:52.343Z,63.20
2023-03-12T08:20:38.820Z,62.87
2023-03-12T08:23:24.968Z,62.77
2023-03-12T08:26:10.961Z,63.38
2023-03-12T08:28:57.805Z,61.37
2023-03-12T08:32:01.610Z,60.34
2023-03-12T08:34:50.163Z,61.49
2023-03-12T08:37:37.748Z,63.59
2023-03-12T08:40:26.405Z,62.02
2023-03-12T08:43:16.569Z,61.04
2023-03-12T08:46:03.532Z,61.80
2023-03-12T08:48:48.991Z,61.79
2023-03-12T08:51:34.586Z,61.42
2023-03-12T08:54:20.885Z,60.94
2023-03-12T08:57:06.768Z,60.60
2023-03-12T08:59:52.114Z,60.27
2023-03-12T09:02:38.821Z,61.19
2023-03-12T09:05:25.396Z,61.85
2023-03-12T09:08:11.961Z,60.34
2023-03-12T09:10:57.551Z,60.02
2023-03-12T09:14:02.797Z,59.74
2023-03-12T09:16:49.718Z,60.92
2023-03-12T09:19:34.976Z,61.19
2023-03-12T09:22:22.055Z,60.69
2023-03-12T09:25:17.553Z,61.44
2023-03-12T09:28:07.291Z,62.04
2023-03-12T09:30:53.644Z,62.85
2023-03-12T09:33:39.278Z,63.22
2023-03-12T09:36:25.000Z,63.21
2023-03-12T09:39:10.863Z,63.48
2023-03-12T09:41:56.579Z,62.65
2023-03-12T09:44:47.080Z,63.86
2023-03-12T09:47:38.204Z,62.99
2023-03-12T09:50:34.862Z,63.06
2023-03-12T09:53:44.379Z,63.90
2023-03-12T09:56:30.264Z,63.70
2023-03-12T09:59:15.658Z,63.13
2023-03-12T10:02:15.719Z,64.11
2023-03-12T10:05:27.626Z,63.86
2023-03-12T10:08:35.927Z,64.24
2023-03-12T10:11:40.069Z,63.80
2023-03-12T10:14:51.801Z,64.17
2023-03-12T10:17:55.870Z,63.05
2023-03-12T10:21:02.740Z,61.68
2023-03-12T10:24:01.383Z,61.82
2023-03-12T10:26:50.736Z,60.28
2023-03-12T10:29:43.363Z,61.30
2023-03-12T10:32:40.646Z,61.22
2023-03-12T10:35:30.559Z,60.84
2023-03-12T10:38:20.259Z,60.38
2023-03-12T10:41:15.319Z,60.43
2023-03-12T10:44:07.641Z,60.64
2023-03-12T10:47:06.883Z,61.52
2023-03-12T10:49:53.435Z,61.81
2023-03-12T10:52:39.165Z,60.98
2023-03-12T10:55:26.883Z,60.74
2023-03-12T10:58:24.062Z,60.87
2023-03-12T11:01:23.297Z,60.92
2023-03-12T11:04:16.914Z,60.09
2023-03-12T11:07:28.629Z,60.24
2023-03-12T11:10:20.783Z,59.55
2023-03-12T11:13:31.200Z,59.58
2023-03-12T11:16:16.696Z,59.80
2023-03-12T11:19:04.689Z,60.45
2023-03-12T11:22:02.534Z,59.86
2023-03-12T11:25:04.358Z,59.42
2023-03-12T11:27:54.146Z,59.87
2023-03-12T11:30:40.838Z,59.88
2023-03-12T11:33:26.693Z,60.44
2023-03-12T11:36:23.082Z,60.43
2023-03-12T11:39:26.734Z,60.08
2023-03-12T11:42:31.127Z,61.49
2023-03-12T11:45:58.502Z,62.88
2023-03-12T11:48:50.461Z,62.98
2023-03-12T11:52:00.681Z,63.08
2023-03-12T11:55:16.511Z,63.43
2023-03-12T11:58:25.066Z,64.46
2023-03-12T12:02:03.108Z,64.31
2023-03-12T12:05:01.585Z,64.59
2023-03-12T12:08:11.486Z,62.52
2023-03-12T12:11:05.581Z,62.89
2023-03-12T12:14:32.034Z,62.74
2023-03-12T12:17:25.391Z,63.07
2023-03-12T12:20:42.825Z,62.21
2023-03-12T12:24:08.020Z,62.38
2023-03-12T12:27:27.907Z,62.25
2023-03-12T12:30:38.126Z,60.47
2023-03-12T12:33:23.889Z,58.39
2023-03-12T12:36:10.834Z,57.98
2023-03-12T12:39:06.169Z,57.58
2023-03-12T12:41:54.848Z,59.29
2023-03-12T12:44:48.889Z,58.00
2023-03-12T12:47:57.110Z,56.08
2023-03-12T12:50:44.594Z,58.43
2023-03-12T12:53:38.675Z,56.58
2023-03-12T12:56:33.087Z,54.61
2023-03-12T12:59:34.902Z,55.51
2023-03-12T13:02:26.307Z,54.89
2023-03-12T13:05:36.842Z,53.49
2023-03-12T13:08:37.417Z,54.14
2023-03-12T13:11:24.985Z,53.85
2023-03-12T13:14:10.759Z,55.45
2023-03-12T13:17:07.624Z,53.67
2023-03-12T13:20:01.747Z,54.43
2023-03-12T13:23:01.665Z,52.08
2023-03-12T13:25:47.564Z,52.13
2023-03-12T13:29:11.375Z,51.52
2023-03-12T13:31:57.905Z,49.58
2023-03-12T13:34:46.255Z,51.53
2023-03-12T13:37:48.761Z,52.07
2023-03-12T13:40:55.960Z,53.07
2023-03-12T13:43:48.971Z,53.67
2023-03-12T13:46:40.500Z,52.77
2023-03-12T13:49:28.906Z,51.73
2023-03-12T13:52:14.469Z,52.84
2023-03-12T13:55:07.293Z,51.82
2023-03-12T13:58:08.924Z,52.29
2023-03-12T14:01:03.969Z,53.29
2023-03-12T14:03:55.507Z,53.12
2023-03-12T14:07:18.701Z,53.56
2023-03-12T14:10:38.198Z,52.89
2023-03-12T14:13:58.139Z,53.96
2023-03-12T14:16:49.901Z,54.49
2023-03-12T14:19:46.161Z,53.87
2023-03-12T14:22:35.666Z,54.28
2023-03-12T14:25:39.759Z,54.67
2023-03-12T14:28:26.104Z,54.33
2023-03-12T14:31:16.855Z,53.89
2023-03-12T14:34:17.629Z,53.71
2023-03-12T14:37:42.972Z,54.09
2023-03-12T14:40:46.965Z,54.44
2023-03-12T14:43:35.192Z,53.76
2023-03-12T14:46:23.053Z,53.82
2023-03-12T14:49:19.696Z,54.03
2023-03-12T14:52:05.981Z,53.12
2023-03-12T14:55:01.062Z,54.42
2023-03-12T14:57:46.852Z,54.33
2023-03-12T15:00:33.477Z,54.54
2023-03-12T15:03:18.746Z,54.39
2023-03-12T15:06:04.223Z,54.39
2023-03-12T15:08:50.542Z,54.00
2023-03-12T15:11:37.752Z,54.06
2023-03-12T15:14:25.179Z,54.12
2023-03-12T15:17:20.072Z,54.06
2023-03-12T15:20:09.392Z,54.19
2023-03-12T15:22:56.663Z,53.92
2023-03-12T15:25:46.218Z,53.42
2023-03-12T15:28:31.897Z,53.43
2023-03-12T15:31:17.342Z,53.89
2023-03-12T15:34:05.979Z,53.90
2023-03-12T15:36:51.837Z,53.89
2023-03-12T15:39:38.422Z,53.81
2023-03-12T15:42:26.814Z,54.14
2023-03-12T15:45:22.483Z,54.32
2023-03-12T15:48:26.750Z,53.86
2023-03-12T15:51:28.419Z,54.21
2023-03-12T15:54:14.112Z,54.50
2023-03-12T15:57:19.904Z,54.46
2023-03-12T16:00:14.434Z,54.49
2023-03-12T16:03:03.960Z,54.55
2023-03-12T16:05:50.619Z,55.03
2023-03-12T16:08:45.576Z,55.04
2023-03-12T16:11:33.490Z,55.36
2023-03-12T16:14:22.935Z,55.05
2023-03-12T16:17:14.850Z,55.15
2023-03-12T16:20:00.536Z,55.14
2023-03-12T16:22:46.184Z,55.39
2023-03-12T16:25:31.936Z,55.26
2023-03-12T16:28:19.644Z,55.42
2023-03-12T16:31:12.199Z,55.82
2023-03-12T16:33:58.219Z,55.92
2023-03-12T16:36:43.683Z,56.50
2023-03-12T16:39:33.832Z,56.79
2023-03-12T16:42:23.338Z,57.22
2023-03-12T16:45:13.813Z,57.52
2023-03-12T16:48:05.538Z,57.03
2023-03-12T16:50:54.104Z,57.10
2023-03-12T16:53:41.298Z,56.90
2023-03-12T16:56:35.305Z,56.78
2023-03-12T16:59:27.646Z,56.54
2023-03-12T17:02:18.126Z,56.85
2023-03-12T17:05:04.251Z,57.09
2023-03-12T17:07:49.644Z,57.83
2023-03-12T17:10:35.072Z,57.57
2023-03-12T17:13:26.291Z,58.09
2023-03-12T17:16:13.511Z,58.47
2023-03-12T17:18:59.437Z,58.42
2023-03-12T17:21:45.746Z,58.44
2023-03-12T17:24:32.928Z,58.43
2023-03-12T17:27:19.961Z,58.56
2023-03-12T17:30:05.717Z,58.91
2023-03-12T17:32:52.037Z,59.50
2023-03-12T17:35:37.613Z,59.53
2023-03-12T17:38:23.164Z,59.82
2023-03-12T17:41:23.424Z,59.68
2023-03-12T17:44:11.785Z,59.73
2023-03-12T17:46:59.618Z,60.05
2023-03-12T17:49:45.590Z,59.99
2023-03-12T17:52:32.183Z,59.81
2023-03-12T17:55:17.735Z,60.31
2023-03-12T17:58:06.072Z,60.42
2023-03-12T18:00:51.434Z,60.24
2023-03-12T18:03:37.159Z,60.41
2023-03-12T18:06:22.535Z,60.32
2023-03-12T18:09:08.521Z,60.30
2023-03-12T18:11:55.477Z,60.23
2023-03-12T18:14:41.623Z,60.62
2023-03-12T18:17:27.264Z,60.48
2023-03-12T18:20:19.559Z,60.39
2023-03-12T18:23:08.792Z,60.36
2023-03-12T18:25:54.351Z,60.07
2023-03-12T18:28:39.721Z,60.78
2023-03-12T18:31:25.183Z,60.78
2023-03-12T18:34:10.648Z,60.94
2023-03-12T18:36:56.208Z,60.53
2023-03-12T18:39:41.548Z,60.78
2023-03-12T18:42:27.000Z,60.00
2023-03-12T18:45:12.895Z,60.50
2023-03-12T18:47:58.414Z,61.09
2023-03-12T18:50:44.054Z,60.82
2023-03-12T18:53:29.598Z,61.37
2023-03-12T18:56:15.671Z,61.82
2023-03-12T18:59:01.107Z,62.21
2023-03-12T19:01:47.254Z,62.26
2023-03-12T19:04:33.873Z,62.28
2023-03-12T19:07:19.843Z,61.72
2023-03-12T19:10:07.020Z,61.49
2023-03-12T19:12:54.167Z,61.48
2023-03-12T19:15:39.749Z,61.23
2023-03-12T19:18:25.626Z,61.73
2023-03-12T19:21:11.276Z,61.90
2023-03-12T19:23:57.075Z,62.29
2023-03-12T19:26:42.654Z,62.41
2023-03-12T19:29:28.505Z,62.96
2023-03-12T19:32:14.773Z,62.74
2023-03-12T19:35:01.460Z,63.01
2023-03-12T19:37:46.687Z,63.68
2023-03-12T19:40:33.351Z,63.83
2023-03-12T19:43:19.540Z,64.62
2023-03-12T19:46:05.164Z,65.22
2023-03-12T19:48:50.964Z,65.24
2023-03-12T19:51:36.395Z,65.15
2023-03-12T19:54:21.952Z,65.11
2023-03-12T19:57:07.353Z,64.76
2023-03-12T19:59:52.862Z,64.91
2023-03-12T20:02:39.719Z,64.96
2023-03-12T20:05:25.645Z,65.24
2023-03-12T20:08:11.560Z,65.26
2023-03-12T20:11:05.305Z,65.49
2023-03-12T20:13:50.581Z,65.26
2023-03-12T20:16:36.296Z,65.30
2023-03-12T20:19:21.743Z,65.65
2023-03-12T20:22:07.668Z,65.36
2023-03-12T20:24:54.191Z,65.30
2023-03-12T20:27:39.623Z,65.32
2023-03-12T20:30:25.611Z,65.23
2023-03-12T20:33:11.593Z,65.59
2023-03-12T20:35:57.282Z,65.71
2023-03-12T20:38:43.563Z,66.14
2023-03-12T20:41:29.172Z,65.89
2023-03-12T20:44:14.821Z,66.47
2023-03-12T20:47:00.241Z,66.65
2023-03-12T20:49:45.991Z,66.80
2023-03-12T20:52:31.287Z,66.09
2023-03-12T20:55:18.872Z,66.35
2023-03-12T20:58:04.633Z,66.38
2023-03-12T21:00:51.036Z,66.46
2023-03-12T21:03:36.549Z,66.19
2023-03-12T21:06:21.926Z,66.36
2023-03-12T21:09:07.334Z,65.79
2023-03-12T21:11:52.934Z,66.14
2023-03-12T21:14:39.809Z,65.93
2023-03-12T21:17:25.591Z,65.87
2023-03-12T21:20:14.274Z,65.90
2023-03-12T21:23:00.952Z,65.78
2023-03-12T21:25:46.413Z,65.79
2023-03-12T21:28:32.159Z,65.52
2023-03-12T21:31:18.391Z,65.62
2023-03-12T21:34:03.759Z,65.44
2023-03-12T21:36:49.123Z,65.71
2023-03-12T21:39:34.925Z,65.83
2023-03-12T21:42:21.232Z,65.62
2023-03-12T21:45:07.959Z,66.06
2023-03-12T21:47:54.029Z,65.75
2023-03-12T21:50:39.351Z,65.74
2023-03-12T21:53:24.688Z,65.79
2023-03-12T21:56:11.006Z,65.78
2023-03-12T21:58:57.297Z,65.61
2023-03-12T22:01:43.155Z,65.89
2023-03-12T22:04:28.997Z,66.45
2023-03-12T22:07:14.526Z,66.35
2023-03-12T22:10:00.462Z,66.92
2023-03-12T22:12:46.506Z,66.96
2023-03-12T22:15:31.936Z,66.78
2023-03-12T22:18:17.451Z,67.10
2023-03-12T22:21:05.150Z,66.67
2023-03-12T22:23:52.829Z,67.02
2023-03-12T22:26:38.194Z,67.16
2023-03-12T22:29:23.550Z,66.98
2023-03-12T22:32:09.180Z,67.44
2023-03-12T22:34:54.522Z,67.47
2023-03-12T22:37:40.035Z,67.63
2023-03-12T22:40:25.871Z,67.69
2023-03-12T22:43:11.052Z,67.57
2023-03-12T22:45:56.469Z,68.03
2023-03-12T22:48:46.035Z,67.95
2023-03-12T22:51:33.049Z,68.14
2023-03-12T22:54:18.642Z,68.69
2023-03-12T22:57:03.957Z,68.35
2023-03-12T22:59:49.231Z,68.96
2023-03-12T23:02:35.354Z,68.78
2023-03-12T23:05:20.737Z,68.55
2023-03-12T23:08:06.234Z,68.72
2023-03-12T23:11:00.717Z,68.51
2023-03-12T23:13:48.263Z,68.51
2023-03-12T23:16:34.089Z,68.82
2023-03-12T23:19:20.657Z,68.75
2023-03-12T23:22:07.074Z,68.81
2023-03-12T23:24:53.244Z,69.30
2023-03-12T23:27:38.640Z,68.88
2023-03-12T23:30:23.921Z,69.27
2023-03-12T23:33:09.286Z,68.92
2023-03-12T23:35:58.762Z,68.84
2023-03-12T23:38:45.235Z,69.15
2023-03-12T23:41:30.606Z,68.49
2023-03-12T23:44:16.235Z,68.77
2023-03-12T23:47:01.729Z,69.01
2023-03-12T23:49:47.677Z,68.72
2023-03-12T23:52:33.255Z,69.43
2023-03-12T23:55:18.555Z,69.28
2023-03-12T23:58:04.092Z,69.47
